sensor_id;sensor_type;location;lat;lon;timestamp;P1;durP1;ratioP1;P2;durP2;ratioP2
59978;SDS011;45839;44.882;20.650;2024-03-23T00:55:18;51.17;;;29.02;;
59978;SDS011;45839;44.882;20.650;2024-03-23T00:57:44;50.38;;;28.67;;
59978;SDS011;45839;44.882;20.650;2024-03-23T01:00:10;54.67;;;29.75;;
59978;SDS011;45839;44.882;20.650;2024-03-23T01:02:52;52.60;;;29.45;;
59978;SDS011;45839;44.882;20.650;2024-03-23T01:05:18;46.88;;;28.55;;
59978;SDS011;45839;44.882;20.650;2024-03-23T01:07:44;53.67;;;30.73;;
59978;SDS011;45839;44.882;20.650;2024-03-23T01:10:10;48.40;;;29.08;;
59978;SDS011;45839;44.882;20.650;2024-03-23T01:12:36;54.53;;;28.40;;
59978;SDS011;45839;44.882;20.650;2024-03-23T01:15:02;48.97;;;28.50;;
59978;SDS011;45839;44.882;20.650;2024-03-23T01:17:29;50.88;;;30.52;;
59978;SDS011;45839;44.882;20.650;2024-03-23T01:19:55;52.17;;;30.42;;
59978;SDS011;45839;44.882;20.650;2024-03-23T01:22:21;54.08;;;32.13;;
59978;SDS011;45839;44.882;20.650;2024-03-23T01:24:47;59.95;;;32.42;;
59978;SDS011;45839;44.882;20.650;2024-03-23T01:27:13;54.28;;;31.10;;
59978;SDS011;45839;44.882;20.650;2024-03-23T01:29:39;52.75;;;31.20;;
59978;SDS011;45839;44.882;20.650;2024-03-23T01:32:06;53.70;;;31.52;;
59978;SDS011;45839;44.882;20.650;2024-03-23T01:34:32;52.72;;;31.63;;
59978;SDS011;45839;44.882;20.650;2024-03-23T01:36:58;53.17;;;30.27;;
59978;SDS011;45839;44.882;20.650;2024-03-23T01:39:24;56.90;;;30.80;;
59978;SDS011;45839;44.882;20.650;2024-03-23T01:41:50;55.08;;;31.60;;
59978;SDS011;45839;44.882;20.650;2024-03-23T01:44:17;61.88;;;31.85;;
59978;SDS011;45839;44.882;20.650;2024-03-23T01:46:43;59.13;;;31.83;;
59978;SDS011;45839;44.882;20.650;2024-03-23T01:49:09;56.75;;;32.10;;
59978;SDS011;45839;44.882;20.650;2024-03-23T01:51:36;54.95;;;29.60;;
59978;SDS011;45839;44.882;20.650;2024-03-23T01:54:02;55.05;;;30.80;;
59978;SDS011;45839;44.882;20.650;2024-03-23T01:56:31;52.45;;;29.70;;
59978;SDS011;45839;44.882;20.650;2024-03-23T01:59:03;54.80;;;29.88;;
59978;SDS011;45839;44.882;20.650;2024-03-23T02:01:30;51.65;;;28.40;;
59978;SDS011;45839;44.882;20.650;2024-03-23T02:03:56;49.33;;;28.65;;
59978;SDS011;45839;44.882;20.650;2024-03-23T02:06:24;52.08;;;30.70;;
59978;SDS011;45839;44.882;20.650;2024-03-23T02:08:50;56.63;;;31.30;;
59978;SDS011;45839;44.882;20.650;2024-03-23T02:11:16;57.53;;;30.38;;
59978;SDS011;45839;44.882;20.650;2024-03-23T02:13:43;54.03;;;29.92;;
59978;SDS011;45839;44.882;20.650;2024-03-23T02:16:09;52.10;;;28.23;;
59978;SDS011;45839;44.882;20.650;2024-03-23T02:18:35;55.10;;;28.98;;
59978;SDS011;45839;44.882;20.650;2024-03-23T02:21:01;52.40;;;29.88;;
59978;SDS011;45839;44.882;20.650;2024-03-23T02:23:27;60.55;;;29.60;;
59978;SDS011;45839;44.882;20.650;2024-03-23T02:25:54;50.55;;;29.10;;
59978;SDS011;45839;44.882;20.650;2024-03-23T02:28:20;51.42;;;29.58;;
59978;SDS011;45839;44.882;20.650;2024-03-23T02:30:48;57.55;;;31.90;;
59978;SDS011;45839;44.882;20.650;2024-03-23T02:33:14;51.97;;;30.08;;
59978;SDS011;45839;44.882;20.650;2024-03-23T02:35:40;53.38;;;30.02;;
59978;SDS011;45839;44.882;20.650;2024-03-23T02:38:06;50.13;;;29.27;;
59978;SDS011;45839;44.882;20.650;2024-03-23T02:40:32;59.60;;;30.42;;
59978;SDS011;45839;44.882;20.650;2024-03-23T02:42:58;57.33;;;30.17;;
59978;SDS011;45839;44.882;20.650;2024-03-23T02:45:24;56.97;;;32.15;;
59978;SDS011;45839;44.882;20.650;2024-03-23T02:47:51;55.13;;;30.92;;
59978;SDS011;45839;44.882;20.650;2024-03-23T02:50:20;56.50;;;30.65;;
59978;SDS011;45839;44.882;20.650;2024-03-23T02:52:46;54.90;;;30.85;;
59978;SDS011;45839;44.882;20.650;2024-03-23T02:55:12;53.53;;;31.42;;
59978;SDS011;45839;44.882;20.650;2024-03-23T02:57:38;53.88;;;32.53;;
59978;SDS011;45839;44.882;20.650;2024-03-23T03:00:06;56.05;;;32.05;;
59978;SDS011;45839;44.882;20.650;2024-03-23T03:02:32;55.47;;;32.00;;
59978;SDS011;45839;44.882;20.650;2024-03-23T03:04:59;53.33;;;31.38;;
59978;SDS011;45839;44.882;20.650;2024-03-23T03:07:25;61.20;;;33.60;;
59978;SDS011;45839;44.882;20.650;2024-03-23T03:09:51;48.78;;;29.38;;
59978;SDS011;45839;44.882;20.650;2024-03-23T03:12:17;62.75;;;33.45;;
59978;SDS011;45839;44.882;20.650;2024-03-23T03:14:43;50.47;;;30.60;;
59978;SDS011;45839;44.882;20.650;2024-03-23T03:17:09;47.95;;;29.88;;
59978;SDS011;45839;44.882;20.650;2024-03-23T03:19:35;53.17;;;31.58;;
59978;SDS011;45839;44.882;20.650;2024-03-23T03:22:02;58.72;;;31.83;;
59978;SDS011;45839;44.882;20.650;2024-03-23T03:24:29;49.08;;;29.25;;
59978;SDS011;45839;44.882;20.650;2024-03-23T03:26:55;51.00;;;29.98;;
59978;SDS011;45839;44.882;20.650;2024-03-23T03:29:23;48.58;;;30.17;;
59978;SDS011;45839;44.882;20.650;2024-03-23T03:31:49;54.00;;;29.85;;
59978;SDS011;45839;44.882;20.650;2024-03-23T03:34:16;49.40;;;28.33;;
59978;SDS011;45839;44.882;20.650;2024-03-23T03:36:42;46.75;;;28.10;;
59978;SDS011;45839;44.882;20.650;2024-03-23T03:39:08;50.53;;;30.02;;
59978;SDS011;45839;44.882;20.650;2024-03-23T03:41:35;50.97;;;29.80;;
59978;SDS011;45839;44.882;20.650;2024-03-23T03:44:01;53.75;;;30.08;;
59978;SDS011;45839;44.882;20.650;2024-03-23T03:46:27;48.97;;;29.67;;
59978;SDS011;45839;44.882;20.650;2024-03-23T03:48:54;48.25;;;28.23;;
59978;SDS011;45839;44.882;20.650;2024-03-23T03:51:20;46.80;;;28.52;;
59978;SDS011;45839;44.882;20.650;2024-03-23T03:53:46;50.58;;;29.10;;
59978;SDS011;45839;44.882;20.650;2024-03-23T03:56:12;47.97;;;28.25;;
59978;SDS011;45839;44.882;20.650;2024-03-23T03:58:38;49.00;;;28.55;;
59978;SDS011;45839;44.882;20.650;2024-03-23T04:01:08;48.90;;;28.10;;
59978;SDS011;45839;44.882;20.650;2024-03-23T04:03:34;50.95;;;29.13;;
59978;SDS011;45839;44.882;20.650;2024-03-23T04:06:00;46.45;;;28.73;;
59978;SDS011;45839;44.882;20.650;2024-03-23T04:08:26;48.30;;;27.83;;
59978;SDS011;45839;44.882;20.650;2024-03-23T04:10:52;54.00;;;28.73;;
59978;SDS011;45839;44.882;20.650;2024-03-23T04:13:19;46.25;;;27.35;;
59978;SDS011;45839;44.882;20.650;2024-03-23T04:15:45;50.70;;;27.80;;
59978;SDS011;45839;44.882;20.650;2024-03-23T04:18:11;54.10;;;29.35;;
59978;SDS011;45839;44.882;20.650;2024-03-23T04:20:37;51.40;;;29.20;;
59978;SDS011;45839;44.882;20.650;2024-03-23T04:23:03;52.97;;;29.65;;
59978;SDS011;45839;44.882;20.650;2024-03-23T04:25:29;47.28;;;28.67;;
59978;SDS011;45839;44.882;20.650;2024-03-23T04:27:56;52.38;;;28.80;;
59978;SDS011;45839;44.882;20.650;2024-03-23T04:30:22;45.63;;;28.20;;
59978;SDS011;45839;44.882;20.650;2024-03-23T04:32:50;49.35;;;26.83;;
59978;SDS011;45839;44.882;20.650;2024-03-23T04:35:16;45.22;;;27.02;;
59978;SDS011;45839;44.882;20.650;2024-03-23T04:37:42;45.28;;;26.45;;
59978;SDS011;45839;44.882;20.650;2024-03-23T04:40:08;46.00;;;25.75;;
59978;SDS011;45839;44.882;20.650;2024-03-23T04:42:36;51.28;;;27.63;;
59978;SDS011;45839;44.882;20.650;2024-03-23T04:45:03;43.90;;;25.88;;
59978;SDS011;45839;44.882;20.650;2024-03-23T04:47:31;44.97;;;27.27;;
59978;SDS011;45839;44.882;20.650;2024-03-23T04:49:57;43.30;;;25.58;;
59978;SDS011;45839;44.882;20.650;2024-03-23T04:52:23;47.22;;;26.20;;
59978;SDS011;45839;44.882;20.650;2024-03-23T04:54:49;47.08;;;25.10;;
59978;SDS011;45839;44.882;20.650;2024-03-23T04:57:15;42.25;;;26.30;;
59978;SDS011;45839;44.882;20.650;2024-03-23T04:59:42;42.10;;;25.02;;
59978;SDS011;45839;44.882;20.650;2024-03-23T05:02:08;46.25;;;26.83;;
59978;SDS011;45839;44.882;20.650;2024-03-23T05:04:35;42.55;;;25.75;;
59978;SDS011;45839;44.882;20.650;2024-03-23T05:07:02;45.53;;;26.85;;
59978;SDS011;45839;44.882;20.650;2024-03-23T05:09:29;42.97;;;24.95;;
59978;SDS011;45839;44.882;20.650;2024-03-23T05:11:56;47.85;;;28.13;;
59978;SDS011;45839;44.882;20.650;2024-03-23T05:14:22;45.55;;;26.15;;
59978;SDS011;45839;44.882;20.650;2024-03-23T05:16:48;47.90;;;26.58;;
59978;SDS011;45839;44.882;20.650;2024-03-23T05:19:14;44.83;;;26.30;;
59978;SDS011;45839;44.882;20.650;2024-03-23T05:21:40;43.97;;;25.52;;
59978;SDS011;45839;44.882;20.650;2024-03-23T05:24:07;46.55;;;26.45;;
59978;SDS011;45839;44.882;20.650;2024-03-23T05:26:33;47.53;;;26.30;;
59978;SDS011;45839;44.882;20.650;2024-03-23T05:28:59;41.85;;;25.38;;
59978;SDS011;45839;44.882;20.650;2024-03-23T05:31:26;42.15;;;26.08;;
59978;SDS011;45839;44.882;20.650;2024-03-23T05:33:52;44.90;;;25.13;;
59978;SDS011;45839;44.882;20.650;2024-03-23T05:36:18;44.33;;;25.35;;
59978;SDS011;45839;44.882;20.650;2024-03-23T05:38:44;45.13;;;25.48;;
59978;SDS011;45839;44.882;20.650;2024-03-23T05:41:10;40.17;;;25.67;;
59978;SDS011;45839;44.882;20.650;2024-03-23T05:43:36;41.58;;;24.52;;
59978;SDS011;45839;44.882;20.650;2024-03-23T05:46:03;39.92;;;23.83;;
59978;SDS011;45839;44.882;20.650;2024-03-23T05:48:35;45.53;;;23.15;;
59978;SDS011;45839;44.882;20.650;2024-03-23T05:51:02;38.53;;;24.40;;
59978;SDS011;45839;44.882;20.650;2024-03-23T05:53:28;37.05;;;22.08;;
59978;SDS011;45839;44.882;20.650;2024-03-23T05:56:02;39.33;;;22.98;;
59978;SDS011;45839;44.882;20.650;2024-03-23T05:58:31;34.17;;;21.02;;
59978;SDS011;45839;44.882;20.650;2024-03-23T06:00:58;36.65;;;21.33;;
59978;SDS011;45839;44.882;20.650;2024-03-23T06:03:28;40.13;;;21.85;;
59978;SDS011;45839;44.882;20.650;2024-03-23T06:05:55;36.88;;;21.88;;
59978;SDS011;45839;44.882;20.650;2024-03-23T06:08:25;35.67;;;21.23;;
59978;SDS011;45839;44.882;20.650;2024-03-23T06:10:51;42.22;;;22.75;;
59978;SDS011;45839;44.882;20.650;2024-03-23T06:13:17;34.63;;;22.10;;
59978;SDS011;45839;44.882;20.650;2024-03-23T06:15:43;47.28;;;23.58;;
59978;SDS011;45839;44.882;20.650;2024-03-23T06:18:11;40.33;;;22.77;;
59978;SDS011;45839;44.882;20.650;2024-03-23T06:20:37;39.00;;;22.55;;
59978;SDS011;45839;44.882;20.650;2024-03-23T06:23:10;34.70;;;21.50;;
59978;SDS011;45839;44.882;20.650;2024-03-23T06:25:37;36.92;;;22.00;;
59978;SDS011;45839;44.882;20.650;2024-03-23T06:28:04;36.40;;;21.42;;
59978;SDS011;45839;44.882;20.650;2024-03-23T06:30:30;37.53;;;21.88;;
59978;SDS011;45839;44.882;20.650;2024-03-23T06:32:57;37.08;;;21.83;;
59978;SDS011;45839;44.882;20.650;2024-03-23T06:35:23;34.30;;;21.65;;
59978;SDS011;45839;44.882;20.650;2024-03-23T06:37:49;33.00;;;20.95;;
59978;SDS011;45839;44.882;20.650;2024-03-23T06:40:18;33.92;;;19.98;;
59978;SDS011;45839;44.882;20.650;2024-03-23T06:42:57;34.55;;;20.48;;
59978;SDS011;45839;44.882;20.650;2024-03-23T06:45:25;34.83;;;19.90;;
59978;SDS011;45839;44.882;20.650;2024-03-23T06:47:51;34.47;;;19.90;;
59978;SDS011;45839;44.882;20.650;2024-03-23T06:50:17;33.20;;;18.45;;
59978;SDS011;45839;44.882;20.650;2024-03-23T06:52:44;32.15;;;18.90;;
59978;SDS011;45839;44.882;20.650;2024-03-23T06:55:10;33.15;;;19.27;;
59978;SDS011;45839;44.882;20.650;2024-03-23T06:57:36;34.75;;;20.08;;
59978;SDS011;45839;44.882;20.650;2024-03-23T07:00:02;33.53;;;18.52;;
59978;SDS011;45839;44.882;20.650;2024-03-23T07:02:29;34.28;;;19.70;;
59978;SDS011;45839;44.882;20.650;2024-03-23T07:04:58;35.38;;;19.30;;
59978;SDS011;45839;44.882;20.650;2024-03-23T07:07:27;33.83;;;18.27;;
59978;SDS011;45839;44.882;20.650;2024-03-23T07:10:01;80.50;;;46.80;;
59978;SDS011;45839;44.882;20.650;2024-03-23T07:12:30;67.63;;;40.15;;
59978;SDS011;45839;44.882;20.650;2024-03-23T07:14:57;54.33;;;31.75;;
59978;SDS011;45839;44.882;20.650;2024-03-23T07:17:25;52.92;;;31.08;;
59978;SDS011;45839;44.882;20.650;2024-03-23T07:20:03;53.45;;;30.38;;
59978;SDS011;45839;44.882;20.650;2024-03-23T07:22:53;41.70;;;24.23;;
59978;SDS011;45839;44.882;20.650;2024-03-23T07:25:25;40.92;;;24.23;;
59978;SDS011;45839;44.882;20.650;2024-03-23T07:28:42;47.58;;;26.35;;
59978;SDS011;45839;44.882;20.650;2024-03-23T07:31:26;39.33;;;21.48;;
59978;SDS011;45839;44.882;20.650;2024-03-23T07:33:52;36.13;;;20.83;;
59978;SDS011;45839;44.882;20.650;2024-03-23T07:36:28;37.65;;;21.02;;
59978;SDS011;45839;44.882;20.650;2024-03-23T07:39:00;35.90;;;20.23;;
59978;SDS011;45839;44.882;20.650;2024-03-23T07:41:29;40.67;;;21.17;;
59978;SDS011;45839;44.882;20.650;2024-03-23T07:44:01;26.58;;;17.98;;
59978;SDS011;45839;44.882;20.650;2024-03-23T07:49:11;34.05;;;19.30;;
59978;SDS011;45839;44.882;20.650;2024-03-23T07:51:42;29.80;;;18.88;;
59978;SDS011;45839;44.882;20.650;2024-03-23T07:54:14;28.60;;;17.67;;
59978;SDS011;45839;44.882;20.650;2024-03-23T07:56:43;28.20;;;16.90;;
59978;SDS011;45839;44.882;20.650;2024-03-23T07:59:09;28.88;;;17.27;;
59978;SDS011;45839;44.882;20.650;2024-03-23T08:01:38;30.02;;;16.77;;
59978;SDS011;45839;44.882;20.650;2024-03-23T08:04:07;30.15;;;16.92;;
59978;SDS011;45839;44.882;20.650;2024-03-23T08:06:35;27.90;;;16.33;;
59978;SDS011;45839;44.882;20.650;2024-03-23T08:09:13;27.35;;;16.55;;
59978;SDS011;45839;44.882;20.650;2024-03-23T08:11:52;27.77;;;16.90;;
59978;SDS011;45839;44.882;20.650;2024-03-23T08:14:18;26.90;;;14.52;;
59978;SDS011;45839;44.882;20.650;2024-03-23T08:16:47;24.73;;;14.20;;
59978;SDS011;45839;44.882;20.650;2024-03-23T08:19:19;21.38;;;12.63;;
59978;SDS011;45839;44.882;20.650;2024-03-23T08:21:47;28.52;;;13.38;;
59978;SDS011;45839;44.882;20.650;2024-03-23T08:24:16;25.05;;;13.80;;
59978;SDS011;45839;44.882;20.650;2024-03-23T08:26:42;23.17;;;13.45;;
59978;SDS011;45839;44.882;20.650;2024-03-23T08:29:09;22.77;;;13.02;;
59978;SDS011;45839;44.882;20.650;2024-03-23T08:31:40;21.15;;;11.85;;
59978;SDS011;45839;44.882;20.650;2024-03-23T08:34:06;29.00;;;13.90;;
59978;SDS011;45839;44.882;20.650;2024-03-23T08:36:32;20.30;;;11.35;;
59978;SDS011;45839;44.882;20.650;2024-03-23T08:38:58;21.05;;;11.82;;
59978;SDS011;45839;44.882;20.650;2024-03-23T08:41:27;20.30;;;11.93;;
59978;SDS011;45839;44.882;20.650;2024-03-23T08:47:00;18.90;;;10.40;;
59978;SDS011;45839;44.882;20.650;2024-03-23T08:49:50;20.60;;;12.27;;
59978;SDS011;45839;44.882;20.650;2024-03-23T08:52:24;21.10;;;11.63;;
59978;SDS011;45839;44.882;20.650;2024-03-23T08:55:09;19.98;;;11.05;;
59978;SDS011;45839;44.882;20.650;2024-03-23T08:57:36;19.17;;;10.70;;
59978;SDS011;45839;44.882;20.650;2024-03-23T09:00:11;19.50;;;11.15;;
59978;SDS011;45839;44.882;20.650;2024-03-23T09:02:47;17.20;;;10.57;;
59978;SDS011;45839;44.882;20.650;2024-03-23T09:05:23;17.77;;;10.27;;
59978;SDS011;45839;44.882;20.650;2024-03-23T09:08:03;18.08;;;10.27;;
59978;SDS011;45839;44.882;20.650;2024-03-23T09:13:52;16.90;;;9.98;;
59978;SDS011;45839;44.882;20.650;2024-03-23T09:16:18;13.88;;;8.63;;
59978;SDS011;45839;44.882;20.650;2024-03-23T09:18:56;15.52;;;8.65;;
59978;SDS011;45839;44.882;20.650;2024-03-23T09:21:25;15.73;;;9.25;;
59978;SDS011;45839;44.882;20.650;2024-03-23T09:23:51;21.15;;;11.20;;
59978;SDS011;45839;44.882;20.650;2024-03-23T09:26:17;20.05;;;11.05;;
59978;SDS011;45839;44.882;20.650;2024-03-23T09:28:44;21.85;;;12.82;;
59978;SDS011;45839;44.882;20.650;2024-03-23T09:31:10;23.13;;;12.98;;
59978;SDS011;45839;44.882;20.650;2024-03-23T09:33:39;16.80;;;9.70;;
59978;SDS011;45839;44.882;20.650;2024-03-23T09:36:06;19.40;;;12.45;;
59978;SDS011;45839;44.882;20.650;2024-03-23T09:38:32;16.55;;;10.23;;
59978;SDS011;45839;44.882;20.650;2024-03-23T09:41:06;16.83;;;9.18;;
59978;SDS011;45839;44.882;20.650;2024-03-23T09:43:33;18.73;;;10.27;;
59978;SDS011;45839;44.882;20.650;2024-03-23T09:45:59;17.75;;;10.82;;
59978;SDS011;45839;44.882;20.650;2024-03-23T09:48:25;14.32;;;8.63;;
59978;SDS011;45839;44.882;20.650;2024-03-23T09:50:52;15.93;;;8.95;;
59978;SDS011;45839;44.882;20.650;2024-03-23T09:53:18;17.45;;;9.38;;
59978;SDS011;45839;44.882;20.650;2024-03-23T09:55:44;15.27;;;8.95;;
59978;SDS011;45839;44.882;20.650;2024-03-23T09:58:17;16.25;;;8.25;;
59978;SDS011;45839;44.882;20.650;2024-03-23T10:00:43;17.05;;;9.48;;
59978;SDS011;45839;44.882;20.650;2024-03-23T10:03:12;16.80;;;8.73;;
59978;SDS011;45839;44.882;20.650;2024-03-23T10:05:38;12.60;;;7.03;;
59978;SDS011;45839;44.882;20.650;2024-03-23T10:10:42;15.38;;;8.48;;
59978;SDS011;45839;44.882;20.650;2024-03-23T10:13:08;13.55;;;7.05;;
59978;SDS011;45839;44.882;20.650;2024-03-23T10:15:35;13.32;;;7.07;;
59978;SDS011;45839;44.882;20.650;2024-03-23T10:18:19;14.07;;;6.75;;
59978;SDS011;45839;44.882;20.650;2024-03-23T10:23:38;12.68;;;6.35;;
59978;SDS011;45839;44.882;20.650;2024-03-23T10:26:18;12.85;;;7.30;;
59978;SDS011;45839;44.882;20.650;2024-03-23T10:31:18;9.43;;;6.10;;
59978;SDS011;45839;44.882;20.650;2024-03-23T10:33:48;9.75;;;6.07;;
59978;SDS011;45839;44.882;20.650;2024-03-23T10:36:15;11.13;;;5.75;;
59978;SDS011;45839;44.882;20.650;2024-03-23T10:38:44;11.98;;;6.50;;
59978;SDS011;45839;44.882;20.650;2024-03-23T10:41:10;10.65;;;6.32;;
59978;SDS011;45839;44.882;20.650;2024-03-23T10:43:37;12.18;;;6.50;;
59978;SDS011;45839;44.882;20.650;2024-03-23T10:46:04;11.07;;;5.18;;
59978;SDS011;45839;44.882;20.650;2024-03-23T10:48:31;9.80;;;5.40;;
59978;SDS011;45839;44.882;20.650;2024-03-23T10:50:57;10.80;;;5.43;;
59978;SDS011;45839;44.882;20.650;2024-03-23T10:53:25;11.40;;;5.72;;
59978;SDS011;45839;44.882;20.650;2024-03-23T10:55:51;10.95;;;5.32;;
59978;SDS011;45839;44.882;20.650;2024-03-23T10:58:19;8.30;;;4.88;;
59978;SDS011;45839;44.882;20.650;2024-03-23T11:00:47;10.30;;;5.60;;
59978;SDS011;45839;44.882;20.650;2024-03-23T11:05:59;8.98;;;5.22;;
59978;SDS011;45839;44.882;20.650;2024-03-23T11:08:33;9.07;;;5.20;;
59978;SDS011;45839;44.882;20.650;2024-03-23T11:13:38;10.35;;;5.38;;
59978;SDS011;45839;44.882;20.650;2024-03-23T11:18:49;8.18;;;4.57;;
59978;SDS011;45839;44.882;20.650;2024-03-23T11:24:15;8.05;;;4.38;;
59978;SDS011;45839;44.882;20.650;2024-03-23T11:26:41;7.93;;;4.15;;
59978;SDS011;45839;44.882;20.650;2024-03-23T11:29:11;7.40;;;4.13;;
59978;SDS011;45839;44.882;20.650;2024-03-23T11:31:47;9.25;;;5.35;;
59978;SDS011;45839;44.882;20.650;2024-03-23T11:34:15;20.83;;;13.10;;
59978;SDS011;45839;44.882;20.650;2024-03-23T11:36:41;18.40;;;11.55;;
59978;SDS011;45839;44.882;20.650;2024-03-23T11:39:11;16.05;;;8.85;;
59978;SDS011;45839;44.882;20.650;2024-03-23T11:41:45;32.90;;;20.83;;
59978;SDS011;45839;44.882;20.650;2024-03-23T11:44:29;18.23;;;12.27;;
59978;SDS011;45839;44.882;20.650;2024-03-23T11:47:03;12.77;;;6.93;;
59978;SDS011;45839;44.882;20.650;2024-03-23T11:49:32;12.95;;;6.88;;
59978;SDS011;45839;44.882;20.650;2024-03-23T11:51:59;7.28;;;3.22;;
59978;SDS011;45839;44.882;20.650;2024-03-23T11:54:41;6.80;;;3.65;;
59978;SDS011;45839;44.882;20.650;2024-03-23T11:57:08;5.57;;;3.08;;
59978;SDS011;45839;44.882;20.650;2024-03-23T11:59:35;8.15;;;3.70;;
59978;SDS011;45839;44.882;20.650;2024-03-23T12:02:08;6.55;;;3.13;;
59978;SDS011;45839;44.882;20.650;2024-03-23T12:04:41;6.25;;;3.10;;
59978;SDS011;45839;44.882;20.650;2024-03-23T12:07:20;6.95;;;3.45;;
59978;SDS011;45839;44.882;20.650;2024-03-23T12:10:07;6.28;;;2.90;;
59978;SDS011;45839;44.882;20.650;2024-03-23T12:12:33;6.32;;;2.75;;
59978;SDS011;45839;44.882;20.650;2024-03-23T12:17:44;5.10;;;2.50;;
59978;SDS011;45839;44.882;20.650;2024-03-23T12:20:10;6.45;;;2.63;;
59978;SDS011;45839;44.882;20.650;2024-03-23T12:22:42;6.68;;;2.50;;
59978;SDS011;45839;44.882;20.650;2024-03-23T12:25:10;8.20;;;2.90;;
59978;SDS011;45839;44.882;20.650;2024-03-23T12:27:36;6.07;;;2.88;;
59978;SDS011;45839;44.882;20.650;2024-03-23T12:30:03;6.38;;;3.03;;
59978;SDS011;45839;44.882;20.650;2024-03-23T12:32:29;10.18;;;4.18;;
59978;SDS011;45839;44.882;20.650;2024-03-23T12:40:15;6.90;;;2.55;;
59978;SDS011;45839;44.882;20.650;2024-03-23T12:42:47;6.00;;;3.03;;
59978;SDS011;45839;44.882;20.650;2024-03-23T12:45:13;5.57;;;2.70;;
59978;SDS011;45839;44.882;20.650;2024-03-23T12:47:39;7.22;;;2.92;;
59978;SDS011;45839;44.882;20.650;2024-03-23T12:50:08;5.95;;;2.80;;
59978;SDS011;45839;44.882;20.650;2024-03-23T12:55:24;6.25;;;3.00;;
59978;SDS011;45839;44.882;20.650;2024-03-23T12:58:01;6.57;;;2.80;;
59978;SDS011;45839;44.882;20.650;2024-03-23T13:00:46;6.63;;;2.75;;
59978;SDS011;45839;44.882;20.650;2024-03-23T13:06:13;7.65;;;2.50;;
59978;SDS011;45839;44.882;20.650;2024-03-23T13:08:45;6.72;;;2.60;;
59978;SDS011;45839;44.882;20.650;2024-03-23T13:19:36;7.27;;;2.67;;
59978;SDS011;45839;44.882;20.650;2024-03-23T13:22:05;5.60;;;2.80;;
59978;SDS011;45839;44.882;20.650;2024-03-23T13:24:32;7.15;;;2.80;;
59978;SDS011;45839;44.882;20.650;2024-03-23T13:26:58;7.00;;;3.00;;
59978;SDS011;45839;44.882;20.650;2024-03-23T13:29:24;5.28;;;2.83;;
59978;SDS011;45839;44.882;20.650;2024-03-23T13:31:51;6.10;;;2.97;;
59978;SDS011;45839;44.882;20.650;2024-03-23T13:34:20;6.32;;;2.67;;
59978;SDS011;45839;44.882;20.650;2024-03-23T13:36:55;5.90;;;3.00;;
59978;SDS011;45839;44.882;20.650;2024-03-23T13:39:24;5.68;;;2.72;;
59978;SDS011;45839;44.882;20.650;2024-03-23T13:41:52;4.78;;;2.40;;
59978;SDS011;45839;44.882;20.650;2024-03-23T13:44:20;7.50;;;2.90;;
59978;SDS011;45839;44.882;20.650;2024-03-23T13:46:46;6.38;;;3.22;;
59978;SDS011;45839;44.882;20.650;2024-03-23T13:49:19;5.20;;;2.65;;
59978;SDS011;45839;44.882;20.650;2024-03-23T13:54:36;6.88;;;3.05;;
59978;SDS011;45839;44.882;20.650;2024-03-23T13:57:02;9.55;;;3.05;;
59978;SDS011;45839;44.882;20.650;2024-03-23T13:59:29;7.47;;;3.08;;
59978;SDS011;45839;44.882;20.650;2024-03-23T14:01:55;6.00;;;3.10;;
59978;SDS011;45839;44.882;20.650;2024-03-23T14:04:21;7.30;;;2.80;;
59978;SDS011;45839;44.882;20.650;2024-03-23T14:06:53;9.07;;;3.00;;
59978;SDS011;45839;44.882;20.650;2024-03-23T14:09:23;6.13;;;2.75;;
59978;SDS011;45839;44.882;20.650;2024-03-23T14:11:50;6.57;;;3.05;;
59978;SDS011;45839;44.882;20.650;2024-03-23T14:14:17;6.47;;;2.88;;
59978;SDS011;45839;44.882;20.650;2024-03-23T14:16:43;9.27;;;3.15;;
59978;SDS011;45839;44.882;20.650;2024-03-23T14:19:09;6.07;;;3.17;;
59978;SDS011;45839;44.882;20.650;2024-03-23T14:21:59;5.82;;;2.80;;
59978;SDS011;45839;44.882;20.650;2024-03-23T14:24:44;9.52;;;2.83;;
59978;SDS011;45839;44.882;20.650;2024-03-23T14:27:10;5.35;;;2.90;;
59978;SDS011;45839;44.882;20.650;2024-03-23T14:29:37;8.20;;;3.80;;
59978;SDS011;45839;44.882;20.650;2024-03-23T14:32:09;7.72;;;3.30;;
59978;SDS011;45839;44.882;20.650;2024-03-23T14:35:01;6.05;;;2.85;;
59978;SDS011;45839;44.882;20.650;2024-03-23T14:40:35;6.13;;;3.20;;
59978;SDS011;45839;44.882;20.650;2024-03-23T14:43:24;8.00;;;3.20;;
59978;SDS011;45839;44.882;20.650;2024-03-23T14:46:14;6.22;;;2.92;;
59978;SDS011;45839;44.882;20.650;2024-03-23T14:48:41;7.45;;;3.08;;
59978;SDS011;45839;44.882;20.650;2024-03-23T14:51:08;6.18;;;2.90;;
59978;SDS011;45839;44.882;20.650;2024-03-23T14:53:37;7.88;;;3.33;;
59978;SDS011;45839;44.882;20.650;2024-03-23T14:56:10;5.43;;;2.92;;
59978;SDS011;45839;44.882;20.650;2024-03-23T14:58:41;6.13;;;3.33;;
59978;SDS011;45839;44.882;20.650;2024-03-23T15:01:08;6.50;;;3.25;;
59978;SDS011;45839;44.882;20.650;2024-03-23T15:03:35;7.35;;;3.00;;
59978;SDS011;45839;44.882;20.650;2024-03-23T15:06:01;6.32;;;3.50;;
59978;SDS011;45839;44.882;20.650;2024-03-23T15:08:27;6.40;;;3.15;;
59978;SDS011;45839;44.882;20.650;2024-03-23T15:10:54;5.43;;;2.63;;
59978;SDS011;45839;44.882;20.650;2024-03-23T15:13:34;8.13;;;4.15;;
59978;SDS011;45839;44.882;20.650;2024-03-23T15:16:00;8.65;;;3.63;;
59978;SDS011;45839;44.882;20.650;2024-03-23T15:18:40;8.70;;;3.45;;
59978;SDS011;45839;44.882;20.650;2024-03-23T15:21:06;7.25;;;3.08;;
59978;SDS011;45839;44.882;20.650;2024-03-23T15:23:34;6.18;;;3.30;;
59978;SDS011;45839;44.882;20.650;2024-03-23T15:26:01;7.28;;;3.30;;
59978;SDS011;45839;44.882;20.650;2024-03-23T15:28:29;6.72;;;2.92;;
59978;SDS011;45839;44.882;20.650;2024-03-23T15:31:14;5.93;;;2.85;;
59978;SDS011;45839;44.882;20.650;2024-03-23T15:33:43;6.75;;;3.17;;
59978;SDS011;45839;44.882;20.650;2024-03-23T15:36:18;6.35;;;3.20;;
59978;SDS011;45839;44.882;20.650;2024-03-23T15:38:44;6.82;;;3.08;;
59978;SDS011;45839;44.882;20.650;2024-03-23T15:41:19;7.25;;;3.50;;
59978;SDS011;45839;44.882;20.650;2024-03-23T15:43:57;8.65;;;3.67;;
59978;SDS011;45839;44.882;20.650;2024-03-23T15:46:29;6.20;;;3.10;;
59978;SDS011;45839;44.882;20.650;2024-03-23T15:48:55;6.30;;;3.10;;
59978;SDS011;45839;44.882;20.650;2024-03-23T15:51:21;10.77;;;6.65;;
59978;SDS011;45839;44.882;20.650;2024-03-23T15:53:47;15.70;;;9.65;;
59978;SDS011;45839;44.882;20.650;2024-03-23T15:56:17;10.20;;;5.82;;
59978;SDS011;45839;44.882;20.650;2024-03-23T15:58:43;10.00;;;5.00;;
59978;SDS011;45839;44.882;20.650;2024-03-23T16:01:10;8.77;;;3.60;;
59978;SDS011;45839;44.882;20.650;2024-03-23T16:03:36;7.68;;;3.38;;
59978;SDS011;45839;44.882;20.650;2024-03-23T16:06:03;8.02;;;3.80;;
59978;SDS011;45839;44.882;20.650;2024-03-23T16:08:30;8.88;;;3.80;;
59978;SDS011;45839;44.882;20.650;2024-03-23T16:11:02;8.48;;;4.00;;
59978;SDS011;45839;44.882;20.650;2024-03-23T16:13:29;8.57;;;3.97;;
59978;SDS011;45839;44.882;20.650;2024-03-23T16:15:58;10.38;;;3.90;;
59978;SDS011;45839;44.882;20.650;2024-03-23T16:18:25;10.75;;;4.25;;